Terminal Aerodrome Forecast
Issued by NWS

Home | Current Version | Previous Version | Text Only | Print | Product List | Glossary On
Versions: 1 2 3 4 5 6 7 8 9 10 11 12 13 14
000
FTUS41 KPHI 311100
TAFMIV
TAF
KMIV 311120Z 3112/0112 VRB03KT P6SM SCT080
     FM311500 23007KT P6SM FEW050
     FM312300 VRB02KT P6SM BKN200
     FM010700 00000KT 3SM BR BKN150=

USA.gov is the U.S. government's official web portal to all federal, state and local government web resources and services.